Flight Track Log - Related Links

Times and Time Zones

All times are in EDT time to prevent confusion due to time zone crossing. See the AWI3970 flight status page for this flight to view local times or setup timezone preferences in your user account.

Time Position Orientation Groundspeed Altitude Reporting Facility
EDT Latitude Longitude Course Direction KTS MPH feet Rate Location/Type
23:19 39.8500 -75.2833 46° Northeast 162 186 1,200  Level Philadelphia TRACON
23:20 39.8500 -75.3000 270° West 162 186 2,000 2,734 Climbing Philadelphia TRACON
23:21 39.8167 -75.3500 229° Southwest 205 236 4,800 2,650 Climbing Philadelphia TRACON
23:22 39.7999 -74.7829 105° East  Level FlightAware Approximate
23:22 39.7667 -75.3333 166° South 260 299 7,300  Level Philadelphia TRACON
23:23 39.8267 -74.6567 37° Northeast  Level FlightAware Approximate
23:23 39.7667 -75.2333 90° East 303 349 9,300  Level Philadelphia TRACON
23:24 39.9238 -74.5667 North  Level FlightAware Approximate
23:24 39.7667 -75.1167 90° East 310 357 11,600  Level Philadelphia TRACON
23:25 40.0149 -74.4691 46° Northeast  Level FlightAware Approximate
23:25 39.7803 -74.9092 85° East 352 405 13,700  Level New York Center
23:26 39.7914 -74.7747 84° East 372 428 15,700 1,918 Climbing New York Center
23:27 39.8392 -74.6531 63° Northeast 364 419 17,600 1,881 Climbing New York Center
23:28 39.9289 -74.5822 31° Northeast 343 395 19,400 1,664 Climbing New York Center
23:29 40.0169 -74.5031 35° Northeast 362 417 20,900 1,561 Climbing New York Center
23:30 40.1117 -74.4050 38° Northeast 386 444 22,600 1,563 Climbing New York Center
23:31 40.1956 -74.3225 37° Northeast 386 444 24,000 718 Climbing New York Center
23:32 40.2858 -74.2319 37° Northeast 392 451 24,000  Level New York Center
23:33 40.3783 -74.1358 38° Northeast 402 463 24,000  Level New York Center
23:35 40.5369 -74.0075 32° Northeast 416 479 24,000  Level Boston Center
23:36 40.6458 -73.9500 22° Northeast 416 479 24,000  Level Boston Center
23:37 40.7531 -73.8894 23° Northeast 411 473 24,000  Level Boston Center
23:38 40.8500 -73.7956 36° Northeast 416 479 24,000 -150 Level Boston Center
23:39 40.9367 -73.6903 43° Northeast 421 484 23,700 -500 Descending Boston Center
23:40 41.0294 -73.5931 38° Northeast 426 490 23,000 -350 Descending Boston Center
23:41 41.1381 -73.5811 North 386 444 23,000  Level Boston Center
23:42 41.2483 -73.5969 354° North 379 436 23,000 -750 Level Boston Center
23:43 41.3544 -73.6125 354° North 379 436 21,500 -1,750 Descending Boston Center
23:44 41.4583 -73.6283 353° North 379 436 19,500 -1,950 Descending Boston Center
23:45 41.5603 -73.6414 355° North 379 436 17,600 -2,050 Descending Boston Center
23:46 41.6644 -73.6572 354° North 368 423 15,400 -2,050 Descending Boston Center
23:47 41.7644 -73.6703 354° North 363 418 13,500 -1,929 Descending Boston Center
23:48 41.8475 -73.6831 353° North 366 421 11,800 -1,579 Descending Boston Center
23:49 41.9244 -73.6903 356° North 360 414 11,000 -706 Descending Boston Center
23:49 41.9642 -73.6964 353° North 358 412 11,000  Level Boston Center
23:50 42.0244 -73.7061 353° North 363 418 11,000  Level Boston Center
23:50 42.0536 -73.7094 355° North 364 419 11,000  Level Boston Center
23:51 42.1264 -73.7194 354° North 367 422 11,000  Level Boston Center
23:51 42.1639 -73.7231 356° North 364 419 11,000  Level Boston Center
23:52 42.2242 -73.7325 353° North 356 410 11,000 -100 Level Boston Center
23:52 42.2472 -73.7331 359° North 348 400 10,900 -1,180 Descending Boston Center
23:53 42.3011 -73.7453 350° North 263 303 9,800 -1,800 Descending Boston Center
23:53 42.3283 -73.7458 359° North 289 333 9,100 -1,967 Descending Boston Center
23:54 42.3719 -73.7553 351° North 246 283 7,800 -2,000 Descending Boston Center
23:54 42.3928 -73.7614 348° North 255 293 7,100 -2,500 Descending Boston Center
23:55 42.4467 -73.7822 344° North 255 293 5,300 -2,500 Descending Boston Center
23:55 42.4675 -73.7828 359° North 255 293 4,600 -2,073 Descending Boston Center
23:56 42.5047 -73.7947 347° North 251 289 3,400 -1,600 Descending Boston Center
23:56 42.5278 -73.7953 359° North 255 293 3,000 -400 Descending Boston Center
23:57 42.5653 -73.8017 353° North 204 235 3,000  Level Boston Center
23:57 42.5881 -73.7994 North 214 246 3,000 -295 Level Boston Center
23:58 42.6153 -73.8028 355° North 153 176 2,700 -700 Descending Boston Center
23:58 42.6361 -73.8003 North 181 208 2,300 -923 Descending Boston Center

Login

Don't have an account? Register now (free) for customized features, flight alerts, and more!